Ride Results

Yarloop (17-06-2017)
Ride distance: 80.0 km

Outcomes - Yarloop (17-06-2017)
Division No. of Entries Retired / DNE Completed Withdrawn Ineligible V/O Percentage Completed
HW 5 - 3 1 - 1 60.00%
MW 14 - 12 - - 2 85.71%
LW 9 - 6 1 - 2 66.67%
JN 1 - 1 - - - 100.00%
Totals 29 - 22 2 - 5 75.86%
Results - Yarloop (17-06-2017)
No. Rider Horse Place Time Leg Speeds Total
Km/Hr
H/R bpm
Heavyweight
86 Elsje Brandis Eleazar Roxana 1 7:03:00 12.3, 10.4 11.35 38, 46, 51 (Avg:48)
77 John Anderson Marbling Galaxy 2 7:33:00 11.4, 9.8 10.60 34, 51, 51 (Avg:51)
80 Emma Swarbrick Redline Heaven Can Wait 2 (BC) 7:33:00 11.4, 9.8 10.60 33, 36, 44 (Avg:40)
96 Dave Radford Rokewood Sinente Withdrawn L2 0:00:00 - - 30, 41, 43 (Avg:42)
90 Deb Ryan Rubeenova Lame L2 0:00:00 11.6, 9.3 - 32, 40, 48 (Avg:44)
Middleweight
R1 Julia Lockwood Tora Sardeeka 1 (BC) 5:42:00 16.2, 12.3 14.04 39, 42, 48 (Avg:45)
97 Ricci Adlam Al Shafiq JPA 2 5:57:00 15.1, 12.0 13.45 32, 45, 51 (Avg:48)
75 Rachell Nell Robmurty Jimminy 3 6:05:00 13.1, 13.1 13.15 29, 37, 53 (Avg:45)
76 Lienca Nell Ruoak Daryus 3 6:05:00 13.1, 13.1 13.15 35, 49, 33 (Avg:41)
87 Tony Brandis Top Fancy Sundance 5 7:03:00 12.3, 10.4 11.35 39, 52, 56 (Avg:54)
92 Jane Radny Steel Poppy Regent 6 7:07:00 11.5, 10.9 11.24 33, 45, 52 (Avg:48)
91 Bec Radny West Coast Kia 6 7:07:00 11.5, 10.9 11.24 32, 40, 45 (Avg:42)
72 Calan Dumbrell Waterford Stud's Zoom 8 7:29:00 11.6, 9.8 10.69 34, 42, 50 (Avg:46)
73 Sarah Dumbrell Jotaris Jenaya 8 7:29:00 11.6, 9.8 10.69 34, 44, 44 (Avg:44)
84 Sue Fimmano Ruby Park Yori Dakotah 10 7:35:00 10.9, 10.2 10.55 31, 45, 48 (Avg:46)
74 Sam Jones Qadir 11 7:43:00 11.6, 9.3 10.37 26, 34, 44 (Avg:39)
82 Richard Summerfield Arabika Cue Tee 12 7:44:00 10.6, 10.0 10.34 30, 42, 42 (Avg:42)
94 Karen Karlovsky Marbling N'elle Lame L2 0:00:00 15.0, 12.1 - 35, 48, 48 (Avg:48)
88 Jodie McKell Eleazar Ramarkable Lame L1 0:00:00 23.9 - 36, 40 (Avg:40)
Lightweight
93 Siobhan Darlow Arabika Ramarkabal 1 (BC) 6:31:00 13.4, 11.2 12.28 31, 40, 50 (Avg:45)
83 Liz Mulcahy Noran Maxamillion 2 7:05:00 11.7, 10.8 11.29 32, 42, 46 (Avg:44)
89 Kerryn Willing Kaisi View Seduction 3 7:24:00 13.6, 8.9 10.81 36, 41, 54 (Avg:47)
85 Sue Howell Marchall 4 7:35:00 10.9, 10.2 10.55 32, 39, 48 (Avg:43)
99 Maria Bergstrom Pagewood Ruby Shyne 5 7:40:00 11.0, 9.9 10.43 35, 46, 51 (Avg:48)
98 Anita Fortsch Arabika Absolute 6 7:44:00 10.5, 10.1 10.34 37, 41, 50 (Avg:45)
95 Katie Elliott Eleazar Orion Lame L2 0:00:00 13.2, 11.0 - 33, 38, 52 (Avg:45)
81 Lyn Summerfield Kholonial Farrington Withdrawn L2 0:00:00 - - 31, 34, 37 (Avg:35)
71 Claudia Seke West Coast Mehira Lame L1 0:00:00 11.7 - 33, 36 (Avg:36)
Junior
70 Ashleigh Erickson Savannah Banana 1 (BC) 7:33:00 11.4, 9.8 10.60 33, 43, 49 (Avg:46)